Time;durP1;ratioP1;P1;durP2;ratioP2;P2;SDS_P1;SDS_P2;PMS_P1;PMS_P2;Temp;Humidity;BMP_temperature;BMP_pressure;BME280_temperature;BME280_humidity;BME280_pressure;Samples;Min_cycle;Max_cycle;Signal;HPM_P1;HPM_P2
2023/06/29 00:00:42;;;;;;;;;;;18.10;99.90;;;;;;4915309;29;20503;-75
2023/06/29 00:03:11;;;;;;;4.65;3.60;;;18.20;99.90;;;;;;4896736;29;19922;-75
2023/06/29 00:05:37;;;;;;;4.40;3.50;;;18.20;99.90;;;;;;4881588;29;20056;-75
2023/06/29 00:08:02;;;;;;;;;;;18.20;99.90;;;;;;4893337;29;20044;-75
2023/06/29 00:10:28;;;;;;;4.70;3.67;;;18.10;99.90;;;;;;4896772;29;19928;-75
2023/06/29 00:12:54;;;;;;;4.13;3.45;;;18.20;99.90;;;;;;4897039;29;20400;-75
2023/06/29 00:15:20;;;;;;;;;;;18.20;99.90;;;;;;4897824;29;20048;-75
2023/06/29 00:17:47;;;;;;;4.78;3.92;;;18.10;99.90;;;;;;4897595;29;19919;-75
2023/06/29 00:20:14;;;;;;;4.07;3.55;;;18.20;99.90;;;;;;4869101;29;20060;-75
2023/06/29 00:22:47;;;;;;;4.18;3.38;;;18.20;99.90;;;;;;4872829;29;20115;-75
2023/06/29 00:25:23;;;;;;;3.30;2.90;;;18.10;99.90;;;;;;4893325;29;20048;-75
2023/06/29 00:27:48;;;;;;;3.40;2.85;;;18.10;99.90;;;;;;4895516;29;20040;-75
2023/06/29 00:30:15;;;;;;;;;;;18.20;99.90;;;;;;4879415;29;20412;-75
2023/06/29 00:32:41;;;;;;;5.75;4.65;;;18.20;99.90;;;;;;4890086;29;19919;-75
2023/06/29 00:35:06;;;;;;;;;;;18.10;99.90;;;;;;4896762;29;20499;-75
2023/06/29 00:37:32;;;;;;;6.70;4.80;;;18.20;99.90;;;;;;4896065;29;20353;-75
2023/06/29 00:39:58;;;;;;;;;;;18.20;99.90;;;;;;4881249;29;20059;-75
2023/06/29 00:42:23;;;;;;;4.65;4.13;;;18.10;99.90;;;;;;4897803;29;19938;-75
2023/06/29 00:44:49;;;;;;;;;;;18.20;99.90;;;;;;4896124;29;20055;-75
2023/06/29 00:47:14;;;;;;;4.53;3.92;;;18.10;99.90;;;;;;4896270;29;20370;-75
2023/06/29 00:49:40;;;;;;;;;;;18.20;99.90;;;;;;4897231;29;20044;-75
2023/06/29 00:52:07;;;;;;;5.97;4.40;;;18.10;99.90;;;;;;4870990;29;19955;-75
2023/06/29 00:54:32;;;;;;;6.43;4.00;;;18.10;99.90;;;;;;4863482;29;20434;-75
2023/06/29 00:56:58;;;;;;;;;;;18.10;99.90;;;;;;4877727;29;20071;-75
2023/06/29 00:59:25;;;;;;;4.68;3.65;;;18.10;99.90;;;;;;4872188;29;20026;-77
2023/06/29 01:01:52;;;;;;;5.30;4.40;;;18.10;99.90;;;;;;4881451;29;20088;-74
2023/06/29 01:04:22;;;;;;;5.45;3.88;;;18.10;99.90;;;;;;4882770;29;20041;-74
2023/06/29 01:07:15;;;;;;;4.00;3.40;;;18.10;99.90;;;;;;4878534;29;20392;-74
2023/06/29 01:09:44;;;;;;;3.97;3.50;;;18.20;99.90;;;;;;4901842;29;20040;-74
2023/06/29 01:12:13;;;;;;;4.53;3.78;;;18.10;99.90;;;;;;4897389;29;20146;-74
2023/06/29 01:14:41;;;;;;;3.50;3.17;;;18.10;99.90;;;;;;4897196;29;20072;-74
2023/06/29 01:17:11;;;;;;;5.15;4.22;;;18.10;99.90;;;;;;4881917;29;20420;-74
2023/06/29 01:19:38;;;;;;;4.72;3.67;;;18.10;99.90;;;;;;4897146;29;20044;-74
2023/06/29 01:22:24;;;;;;;5.75;4.85;;;18.10;99.90;;;;;;4889264;29;20048;-75
2023/06/29 01:24:49;;;;;;;6.85;4.90;;;18.20;99.90;;;;;;4886228;29;20048;-74
2023/06/29 01:27:15;;;;;;;;;;;18.20;99.90;;;;;;4897618;29;20480;-75
2023/06/29 01:29:41;;;;;;;6.72;5.63;;;18.10;99.90;;;;;;4881676;29;19919;-75
2023/06/29 01:32:08;;;;;;;7.57;5.82;;;18.20;99.90;;;;;;4882075;29;20044;-75
2023/06/29 01:34:38;;;;;;;7.50;5.65;;;18.10;99.90;;;;;;4881943;29;20044;-75
2023/06/29 01:37:19;;;;;;;5.75;4.75;;;18.20;99.90;;;;;;4897304;29;20051;-76
2023/06/29 01:40:05;;;;;;;5.20;4.45;;;18.10;99.90;;;;;;4897230;29;20391;-75
2023/06/29 01:42:32;;;;;;;;;;;18.10;99.90;;;;;;4897542;29;20079;-76
2023/06/29 01:44:59;;;;;;;6.72;4.70;;;18.20;99.90;;;;;;4897156;29;19919;-75
2023/06/29 01:47:26;;;;;;;4.95;3.90;;;18.10;99.90;;;;;;4895717;29;20044;-75
2023/06/29 01:49:52;;;;;;;5.10;4.22;;;18.20;99.90;;;;;;4892567;29;20235;-76
2023/06/29 01:52:18;;;;;;;;;;;18.10;99.90;;;;;;4892169;29;20198;-76
2023/06/29 01:54:44;;;;;;;5.45;4.05;;;18.10;99.90;;;;;;4891230;29;19919;-75
2023/06/29 01:57:10;;;;;;;4.43;4.00;;;18.10;99.90;;;;;;4893599;29;20088;-75
2023/06/29 01:59:36;;;;;;;;;;;18.20;99.90;;;;;;4881450;29;20135;-76
2023/06/29 02:02:02;;;;;;;5.10;4.25;;;18.10;99.90;;;;;;4877914;29;20398;-76
2023/06/29 02:04:28;;;;;;;6.40;4.90;;;18.10;99.90;;;;;;4911432;29;20523;-76
2023/06/29 02:06:54;;;;;;;;;;;18.10;99.90;;;;;;4892163;29;20124;-76
2023/06/29 02:09:20;;;;;;;5.00;4.30;;;18.10;99.90;;;;;;4865358;29;19927;-76
2023/06/29 02:11:45;;;;;;;;;;;18.10;99.90;;;;;;4892300;29;20051;-76
2023/06/29 02:14:11;;;;;;;5.40;4.20;;;18.10;99.90;;;;;;4897974;29;20021;-76
2023/06/29 02:16:38;;;;;;;;;;;18.10;99.90;;;;;;4895884;29;20488;-76
2023/06/29 02:19:05;;;;;;;6.18;4.70;;;18.10;99.90;;;;;;4884985;29;19930;-76
2023/06/29 02:21:30;;;;;;;6.05;4.68;;;18.10;99.90;;;;;;4900301;29;20074;-76
2023/06/29 02:23:56;;;;;;;;;;;18.10;99.90;;;;;;4900816;29;20050;-76
2023/06/29 02:26:25;;;;;;;5.75;4.97;;;18.10;99.90;;;;;;4899041;29;19923;-76
2023/06/29 02:28:51;;;;;;;5.30;4.70;;;18.10;99.90;;;;;;4881477;29;20409;-75
2023/06/29 02:31:17;;;;;;;6.55;5.30;;;18.10;99.90;;;;;;4866166;29;20396;-77
2023/06/29 02:33:44;;;;;;;;;;;18.20;99.90;;;;;;4895012;29;20052;-74
2023/06/29 02:36:09;;;;;;;5.78;4.93;;;18.10;99.90;;;;;;4883606;29;20033;-76
2023/06/29 02:38:35;;;;;;;;;;;18.10;99.90;;;;;;4897652;29;20500;-75
2023/06/29 02:41:01;;;;;;;5.80;4.82;;;18.10;99.90;;;;;;4898898;29;19926;-75
2023/06/29 02:43:26;;;;;;;;;;;18.10;99.90;;;;;;4915776;29;20119;-76
2023/06/29 02:45:52;;;;;;;7.75;6.10;;;18.00;99.90;;;;;;4898184;29;20021;-75
2023/06/29 02:48:17;;;;;;;;;;;18.00;99.90;;;;;;4900330;29;20091;-75
2023/06/29 02:50:43;;;;;;;7.22;5.60;;;18.10;99.90;;;;;;4879858;29;19924;-75
2023/06/29 02:53:11;;;;;;;;;;;18.10;99.90;;;;;;4880581;29;20158;-75
2023/06/29 02:55:37;;;;;;;6.32;4.95;;;18.10;99.90;;;;;;4914759;29;19951;-75
2023/06/29 02:58:03;;;;;;;;;;;18.00;99.90;;;;;;4898652;29;20040;-75
2023/06/29 03:00:28;;;;;;;6.95;5.25;;;18.00;99.90;;;;;;4897558;29;20037;-75
2023/06/29 03:02:54;;;;;;;;;;;18.00;99.90;;;;;;4900310;29;20404;-75
2023/06/29 03:05:19;;;;;;;5.15;4.65;;;18.10;99.90;;;;;;4897987;29;19986;-75
2023/06/29 03:07:45;;;;;;;;;;;18.00;99.90;;;;;;4898554;29;20055;-75
2023/06/29 03:10:11;;;;;;;6.03;4.38;;;18.10;99.90;;;;;;4899234;29;19947;-75
2023/06/29 03:12:36;;;;;;;;;;;18.10;99.90;;;;;;4877467;29;20412;-75
2023/06/29 03:15:02;;;;;;;9.07;6.15;;;18.00;99.90;;;;;;4899379;29;19923;-75
2023/06/29 03:17:28;;;;;;;6.40;5.53;;;18.00;99.90;;;;;;4899397;29;20052;-75
2023/06/29 03:19:54;;;;;;;;;;;18.00;99.90;;;;;;4897432;29;20124;-75
2023/06/29 03:22:19;;;;;;;7.20;5.03;;;18.00;99.90;;;;;;4868184;29;19943;-75
2023/06/29 03:24:45;;;;;;;;;;;18.00;99.90;;;;;;4898677;29;20463;-75
2023/06/29 03:27:11;;;;;;;7.03;5.50;;;18.00;99.90;;;;;;4896332;29;19970;-75
2023/06/29 03:29:36;;;;;;;;;;;18.10;99.90;;;;;;4898467;29;20464;-75
2023/06/29 03:32:02;;;;;;;6.47;5.03;;;18.00;99.90;;;;;;4899183;29;19922;-75
2023/06/29 03:34:28;;;;;;;;;;;18.00;99.90;;;;;;4898096;29;20039;-74
2023/06/29 03:36:53;;;;;;;4.55;3.70;;;18.00;99.90;;;;;;4882606;29;19923;-75
2023/06/29 03:39:19;;;;;;;;;;;18.10;99.90;;;;;;4898821;29;20131;-74
2023/06/29 03:41:45;;;;;;;6.10;5.32;;;18.10;99.90;;;;;;4896018;29;19930;-77
2023/06/29 03:44:10;;;;;;;;;;;18.10;99.90;;;;;;4886815;29;20045;-74
2023/06/29 03:46:36;;;;;;;5.40;4.40;;;18.10;99.90;;;;;;4879803;29;19931;-76
2023/06/29 03:49:02;;;;;;;;;;;18.10;99.90;;;;;;4898411;29;20107;-76
2023/06/29 03:51:27;;;;;;;7.13;6.00;;;18.20;99.90;;;;;;4898011;29;19966;-76
2023/06/29 03:53:53;;;;;;;;;;;18.10;99.90;;;;;;4897991;29;20115;-74
2023/06/29 03:56:18;;;;;;;7.70;6.25;;;18.20;99.90;;;;;;4881887;29;19930;-73
2023/06/29 03:58:44;;;;;;;;;;;18.10;99.90;;;;;;4898752;29;20062;-76
2023/06/29 04:01:10;;;;;;;11.40;7.65;;;18.20;99.90;;;;;;4878146;29;19931;-77
2023/06/29 04:03:35;;;;;;;;;;;18.10;99.90;;;;;;4889938;29;20044;-77
2023/06/29 04:06:01;;;;;;;9.05;7.18;;;18.10;99.90;;;;;;4898825;29;19919;-78
2023/06/29 04:08:27;;;;;;;;;;;18.10;99.90;;;;;;4897972;29;20040;-77
2023/06/29 04:10:53;;;;;;;6.80;5.57;;;18.20;99.90;;;;;;4897712;29;20379;-78
2023/06/29 04:13:19;;;;;;;;;;;18.20;99.90;;;;;;4879704;29;20262;-78
2023/06/29 04:15:44;;;;;;;5.93;4.97;;;18.20;99.90;;;;;;4890109;29;20009;-78
2023/06/29 04:18:10;;;;;;;;;;;18.30;99.90;;;;;;4887824;29;20051;-78
2023/06/29 04:20:36;;;;;;;6.10;5.15;;;18.20;99.90;;;;;;4893314;29;20386;-78
2023/06/29 04:23:02;;;;;;;6.38;4.90;;;18.30;99.90;;;;;;4877761;29;20036;-78
2023/06/29 04:25:27;;;;;;;;;;;18.30;99.90;;;;;;4897501;29;20383;-78
2023/06/29 04:27:53;;;;;;;5.60;4.78;;;18.30;99.90;;;;;;4896412;29;19941;-78
2023/06/29 04:30:19;;;;;;;;;;;18.30;99.90;;;;;;4890245;29;20037;-78
2023/06/29 04:32:46;;;;;;;7.78;6.28;;;18.30;99.90;;;;;;4896337;29;20351;-77
2023/06/29 04:35:13;;;;;;;7.05;5.35;;;18.40;99.90;;;;;;4882699;29;20079;-77
2023/06/29 04:37:42;;;;;;;6.25;4.70;;;18.40;99.90;;;;;;4896791;29;20119;-78
2023/06/29 04:40:14;;;;;;;5.00;3.90;;;18.40;99.90;;;;;;4897775;29;20047;-78
2023/06/29 04:42:47;;;;;;;4.70;4.20;;;18.50;99.90;;;;;;4897668;29;20052;-78
2023/06/29 04:45:20;;;;;;;4.93;3.63;;;18.60;99.90;;;;;;4895165;29;20052;-78
2023/06/29 04:47:49;;;;;;;4.97;4.28;;;18.60;99.90;;;;;;4878712;29;20045;-78
2023/06/29 04:50:15;;;;;;;5.65;4.82;;;18.70;99.90;;;;;;4894523;29;20060;-78
2023/06/29 04:52:41;;;;;;;;;;;18.80;99.90;;;;;;4872936;29;20420;-78
2023/06/29 04:55:10;;;;;;;4.65;4.05;;;18.90;99.90;;;;;;4869659;29;20290;-78
2023/06/29 04:57:36;;;;;;;5.82;4.60;;;19.00;99.90;;;;;;4869037;29;20519;-78
2023/06/29 05:00:07;;;;;;;6.45;5.15;;;19.00;99.90;;;;;;4891589;29;20055;-79
2023/06/29 05:02:33;;;;;;;6.07;4.88;;;19.10;99.90;;;;;;4878458;29;20476;-80
2023/06/29 05:04:58;;;;;;;6.78;5.65;;;19.10;99.90;;;;;;4893800;29;20080;-80
2023/06/29 05:07:24;;;;;;;;;;;19.10;99.90;;;;;;4909769;29;20083;-81
2023/06/29 05:09:50;;;;;;;6.45;5.35;;;19.10;99.90;;;;;;4870300;29;19923;-81
2023/06/29 05:12:16;;;;;;;;;;;19.10;99.90;;;;;;4889359;29;20581;-81
2023/06/29 05:14:41;;;;;;;6.10;5.18;;;19.10;99.90;;;;;;4884935;29;19923;-81
2023/06/29 05:17:07;;;;;;;;;;;19.00;99.90;;;;;;4886813;29;20043;-80
2023/06/29 05:19:34;;;;;;;7.40;6.55;;;19.10;99.90;;;;;;4891573;29;19923;-80
2023/06/29 05:22:00;;;;;;;6.43;5.65;;;19.00;99.90;;;;;;4872121;29;20103;-78
2023/06/29 05:24:28;;;;;;;6.00;4.72;;;19.10;99.90;;;;;;4893351;29;20055;-77
2023/06/29 05:26:54;;;;;;;5.50;4.93;;;19.10;99.90;;;;;;4870237;29;20051;-77
2023/06/29 05:29:20;;;;;;;;;;;19.20;99.90;;;;;;4891680;29;20044;-78
2023/06/29 05:31:45;;;;;;;6.47;4.30;;;19.20;99.90;;;;;;4889700;29;19930;-80
2023/06/29 05:34:11;;;;;;;;;;;19.20;99.90;;;;;;4889303;29;20056;-80
2023/06/29 05:36:36;;;;;;;5.07;4.10;;;19.30;99.90;;;;;;4874743;29;19927;-79
2023/06/29 05:39:03;;;;;;;;;;;19.40;99.90;;;;;;4883259;29;20048;-79
2023/06/29 05:41:29;;;;;;;4.88;3.78;;;19.40;99.90;;;;;;4889754;29;19923;-73
2023/06/29 05:43:55;;;;;;;;;;;19.40;99.90;;;;;;4874719;29;20036;-74
2023/06/29 05:46:21;;;;;;;6.07;4.10;;;19.50;99.90;;;;;;4886732;29;19923;-74
2023/06/29 05:48:47;;;;;;;4.50;3.78;;;19.60;99.90;;;;;;4840198;29;20043;-74
2023/06/29 05:51:13;;;;;;;3.90;3.30;;;19.50;99.90;;;;;;4877155;29;20064;-76
2023/06/29 05:53:38;;;;;;;;;;;19.60;99.90;;;;;;4894276;29;20045;-76
2023/06/29 05:56:04;;;;;;;4.78;3.88;;;19.70;99.90;;;;;;4891105;29;19942;-76
2023/06/29 05:58:29;;;;;;;4.50;3.80;;;19.80;99.90;;;;;;4873137;29;20047;-76
2023/06/29 06:00:55;;;;;;;;;;;19.80;99.90;;;;;;4878823;29;20579;-76
2023/06/29 06:03:22;;;;;;;5.55;4.85;;;19.90;99.90;;;;;;4889555;29;19965;-73
2023/06/29 06:05:48;;;;;;;5.00;4.50;;;19.90;99.90;;;;;;4890649;29;20044;-73
2023/06/29 06:08:13;;;;;;;5.45;4.45;;;20.00;99.90;;;;;;4871726;29;20044;-73
2023/06/29 06:10:39;;;;;;;5.75;4.30;;;20.10;99.90;;;;;;4889288;29;20076;-74
2023/06/29 06:13:05;;;;;;;4.40;3.95;;;20.10;99.90;;;;;;4894232;29;20048;-74
2023/06/29 06:15:31;;;;;;;4.68;3.90;;;20.10;99.90;;;;;;4893957;29;20043;-74
2023/06/29 06:17:57;;;;;;;3.70;3.30;;;20.10;99.90;;;;;;4889533;29;20048;-74
2023/06/29 06:20:22;;;;;;;;;;;20.20;99.90;;;;;;4886289;29;20058;-74
2023/06/29 06:22:48;;;;;;;4.65;3.75;;;20.20;99.90;;;;;;4885117;29;19927;-74
2023/06/29 06:25:17;;;;;;;4.82;3.92;;;20.20;99.90;;;;;;4892063;29;20127;-74
2023/06/29 06:27:43;;;;;;;4.53;3.92;;;20.20;99.90;;;;;;4871170;29;20040;-74
2023/06/29 06:30:09;;;;;;;5.38;4.35;;;20.20;99.90;;;;;;4890679;29;20048;-74
2023/06/29 06:32:38;;;;;;;5.30;4.80;;;20.30;99.90;;;;;;4875710;29;20044;-74
2023/06/29 06:35:07;;;;;;;6.60;5.30;;;20.30;99.90;;;;;;4897377;29;20044;-77
2023/06/29 06:37:35;;;;;;;5.15;4.65;;;20.30;99.90;;;;;;4892499;29;20421;-77
2023/06/29 06:40:03;;;;;;;4.60;4.10;;;20.30;99.90;;;;;;4896438;29;20036;-77
2023/06/29 06:42:28;;;;;;;5.10;4.28;;;20.40;99.90;;;;;;4891790;29;20037;-77
2023/06/29 06:45:00;;;;;;;4.95;4.22;;;20.40;99.90;;;;;;4887645;29;20059;-75
2023/06/29 06:47:26;;;;;;;5.90;5.10;;;20.50;99.90;;;;;;4882265;29;20512;-74
2023/06/29 06:49:51;;;;;;;6.18;5.18;;;20.50;99.90;;;;;;4883560;29;20408;-74
2023/06/29 06:52:17;;;;;;;5.97;5.22;;;20.50;99.90;;;;;;4899265;29;20602;-74
2023/06/29 06:54:43;;;;;;;10.32;6.72;;;20.60;99.90;;;;;;4899540;29;20531;-74
2023/06/29 06:57:09;;;;;;;7.40;6.00;;;20.60;99.90;;;;;;4899484;29;20380;-74
2023/06/29 06:59:34;;;;;;;8.82;6.28;;;20.60;99.90;;;;;;4899242;29;20132;-74
2023/06/29 07:02:00;;;;;;;5.75;5.00;;;20.60;99.90;;;;;;4883661;29;20131;-74
2023/06/29 07:04:26;;;;;;;5.45;4.82;;;20.60;99.90;;;;;;4899165;29;20052;-74
2023/06/29 07:06:51;;;;;;;5.43;4.75;;;20.70;99.90;;;;;;4899668;29;20048;-75
2023/06/29 07:09:17;;;;;;;6.43;4.78;;;20.70;99.90;;;;;;4899416;29;20080;-75
2023/06/29 07:11:43;;;;;;;6.88;5.35;;;20.70;99.90;;;;;;4899267;29;20051;-75
2023/06/29 07:14:08;;;;;;;5.43;4.68;;;20.70;99.90;;;;;;4899280;29;20056;-75
2023/06/29 07:16:34;;;;;;;7.32;5.35;;;20.70;99.90;;;;;;4899290;29;20055;-75
2023/06/29 07:19:03;;;;;;;6.28;5.60;;;20.80;99.90;;;;;;4899213;29;20072;-75
2023/06/29 07:21:29;;;;;;;7.88;6.40;;;20.80;99.90;;;;;;4883502;29;20040;-74
2023/06/29 07:23:55;;;;;;;10.05;7.75;;;20.80;99.90;;;;;;4899144;29;20052;-74
2023/06/29 07:26:22;;;;;;;9.40;7.20;;;20.80;99.90;;;;;;4898867;29;20048;-75
2023/06/29 07:28:48;;;;;;;8.38;7.00;;;20.80;99.90;;;;;;4883651;29;20048;-75
2023/06/29 07:31:14;;;;;;;8.73;6.57;;;20.80;99.90;;;;;;4899249;29;20373;-74
2023/06/29 07:33:41;;;;;;;11.65;6.43;;;20.80;99.90;;;;;;4898882;29;20131;-75
2023/06/29 07:36:08;;;;;;;8.15;5.93;;;20.80;99.90;;;;;;4899049;29;20039;-75
2023/06/29 07:38:33;;;;;;;8.18;5.68;;;20.80;99.90;;;;;;4899261;29;20484;-74
2023/06/29 07:41:00;;;;;;;8.05;5.63;;;20.80;99.90;;;;;;4883498;29;20071;-75
2023/06/29 07:43:25;;;;;;;10.07;7.50;;;20.80;99.90;;;;;;4898914;29;20052;-75
2023/06/29 07:45:51;;;;;;;8.43;6.35;;;20.70;99.90;;;;;;4898608;29;20183;-75
2023/06/29 07:48:17;;;;;;;8.57;6.20;;;20.70;99.90;;;;;;4898830;29;20115;-75
2023/06/29 07:50:42;;;;;;;6.25;5.60;;;20.70;99.90;;;;;;4883200;29;20059;-75
2023/06/29 07:53:08;;;;;;;5.72;5.05;;;20.80;99.90;;;;;;4898688;29;20583;-75
2023/06/29 07:55:34;;;;;;;8.02;6.93;;;20.80;99.90;;;;;;4898530;29;20103;-75
2023/06/29 07:58:00;;;;;;;6.15;5.28;;;20.70;99.90;;;;;;4882685;29;20076;-75
2023/06/29 08:00:26;;;;;;;6.68;5.57;;;20.70;99.90;;;;;;4883042;29;20048;-75
2023/06/29 08:02:51;;;;;;;6.55;5.53;;;20.70;99.90;;;;;;4898764;29;20059;-76
2023/06/29 08:05:17;;;;;;;7.35;6.05;;;20.70;99.90;;;;;;4898322;29;20528;-75
2023/06/29 08:07:43;;;;;;;6.07;5.13;;;20.70;99.90;;;;;;4898636;29;20058;-75
2023/06/29 08:10:09;;;;;;;8.07;6.35;;;20.70;99.90;;;;;;4898797;29;20472;-76
2023/06/29 08:12:35;;;;;;;7.35;6.00;;;20.70;99.90;;;;;;4897785;29;20044;-75
2023/06/29 08:15:01;;;;;;;6.22;5.60;;;20.70;99.90;;;;;;4898428;29;20036;-75
2023/06/29 08:17:27;;;;;;;5.68;4.88;;;20.90;99.90;;;;;;4898609;29;20048;-75
2023/06/29 08:19:52;;;;;;;7.30;6.07;;;21.10;99.90;;;;;;4882817;29;20048;-75
2023/06/29 08:22:18;;;;;;;7.65;5.75;;;21.20;99.90;;;;;;4898103;29;20460;-75
2023/06/29 08:24:44;;;;;;;7.60;6.00;;;21.40;99.90;;;;;;4882647;29;20126;-75
2023/06/29 08:27:09;;;;;;;7.63;6.00;;;21.50;99.90;;;;;;4898261;29;20051;-75
2023/06/29 08:29:39;;;;;;;9.50;7.55;;;21.60;99.90;;;;;;4898032;29;20381;-75
2023/06/29 08:32:05;;;;;;;10.57;8.48;;;21.80;96.30;;;;;;4898000;29;20416;-75
2023/06/29 08:34:31;;;;;;;8.65;7.43;;;21.80;99.90;;;;;;4897695;29;20052;-75
2023/06/29 08:36:56;;;;;;;10.00;8.25;;;21.90;1.00;;;;;;4898079;29;20040;-75
2023/06/29 08:39:22;;;;;;;9.23;7.22;;;21.90;99.90;;;;;;4898185;29;20208;-75
2023/06/29 08:41:48;;;;;;;8.00;6.05;;;21.90;99.90;;;;;;4897965;29;20055;-75
2023/06/29 08:44:15;;;;;;;8.23;6.65;;;22.00;99.90;;;;;;4897868;29;20080;-75
2023/06/29 08:46:43;;;;;;;7.20;6.15;;;22.10;99.90;;;;;;4897511;29;20080;-75
2023/06/29 08:49:09;;;;;;;11.48;9.23;;;22.20;99.90;;;;;;4897917;29;20044;-76
2023/06/29 08:51:39;;;;;;;9.50;7.38;;;22.10;99.90;;;;;;4882151;29;20068;-75
2023/06/29 08:54:06;;;;;;;7.72;6.72;;;22.10;1.00;;;;;;4897621;29;20054;-75
2023/06/29 08:56:33;;;;;;;11.93;7.40;;;22.10;1.00;;;;;;4897616;29;20044;-75
2023/06/29 08:58:59;;;;;;;7.93;6.70;;;22.00;99.90;;;;;;4866874;29;20058;-75
2023/06/29 09:01:25;;;;;;;9.98;7.78;;;22.00;2.00;;;;;;4897340;29;20044;-75
2023/06/29 09:03:51;;;;;;;12.77;9.98;;;22.00;59.70;;;;;;4897853;29;20052;-76
2023/06/29 09:06:18;;;;;;;10.32;8.73;;;21.80;1.00;;;;;;4897745;29;20392;-76
2023/06/29 09:08:44;;;;;;;9.88;8.07;;;21.80;40.70;;;;;;4896176;29;20130;-75
2023/06/29 09:11:10;;;;;;;9.88;8.65;;;21.70;85.10;;;;;;4880930;29;20134;-75
2023/06/29 09:13:36;;;;;;;10.05;8.32;;;21.70;92.70;;;;;;4880693;29;20516;-76
2023/06/29 09:16:03;;;;;;;9.77;8.07;;;21.70;99.90;;;;;;4897385;29;20084;-75
2023/06/29 09:18:31;;;;;;;8.25;7.35;;;21.70;99.90;;;;;;4881343;29;20048;-76
2023/06/29 09:20:57;;;;;;;7.78;6.47;;;21.80;99.90;;;;;;4897332;29;20048;-75
2023/06/29 09:23:26;;;;;;;9.25;7.55;;;22.00;99.90;;;;;;4882028;29;20042;-75
2023/06/29 09:25:54;;;;;;;12.52;9.95;;;22.00;28.20;;;;;;4897462;29;20044;-76
2023/06/29 09:28:20;;;;;;;10.50;8.30;;;22.10;1.00;;;;;;4897289;29;20051;-76
2023/06/29 09:30:46;;;;;;;10.65;8.70;;;22.10;1.00;;;;;;4897158;29;20044;-75
2023/06/29 09:33:13;;;;;;;10.02;8.13;;;22.10;1.00;;;;;;4897413;29;20098;-75
2023/06/29 09:35:53;;;;;;;10.77;8.00;;;22.00;1.00;;;;;;4897009;29;20464;-76
2023/06/29 09:38:20;;;;;;;8.95;7.15;;;22.10;27.60;;;;;;4897151;29;20079;-75
2023/06/29 09:40:55;;;;;;;10.10;7.65;;;22.10;1.00;;;;;;4881677;29;20695;-75
2023/06/29 09:43:25;;;;;;;11.00;8.85;;;22.10;1.00;;;;;;4897164;29;20040;-75
2023/06/29 09:45:52;;;;;;;10.68;9.15;;;22.10;40.80;;;;;;4896913;29;20119;-76
2023/06/29 09:48:22;;;;;;;11.98;9.57;;;22.00;99.90;;;;;;4897407;29;20044;-76
2023/06/29 09:50:51;;;;;;;10.95;9.10;;;22.00;99.90;;;;;;4881377;29;20060;-76
2023/06/29 09:53:17;;;;;;;10.60;9.43;;;22.00;99.90;;;;;;4897319;29;20044;-76
2023/06/29 09:55:45;;;;;;;9.73;8.15;;;22.00;99.90;;;;;;4896711;29;20456;-76
2023/06/29 09:58:12;;;;;;;10.20;8.38;;;22.00;99.90;;;;;;4897020;29;20048;-76
2023/06/29 10:00:39;;;;;;;10.40;8.93;;;21.90;99.90;;;;;;4881389;29;20052;-75
2023/06/29 10:03:05;;;;;;;9.45;7.80;;;22.00;99.90;;;;;;4896949;29;20113;-76
2023/06/29 10:05:31;;;;;;;11.18;9.20;;;22.00;99.90;;;;;;4896825;29;20086;-76
2023/06/29 10:08:02;;;;;;;11.88;9.57;;;22.00;99.90;;;;;;4897119;29;20044;-75
2023/06/29 10:10:31;;;;;;;10.60;8.55;;;21.90;99.90;;;;;;4897007;29;20048;-75
2023/06/29 10:12:58;;;;;;;17.00;9.35;;;21.90;1.00;;;;;;4890619;29;20044;-75
2023/06/29 10:15:27;;;;;;;10.18;8.60;;;21.80;99.90;;;;;;4889686;29;20047;-75
2023/06/29 10:18:00;;;;;;;11.85;10.32;;;21.80;99.90;;;;;;4888784;29;20083;-75
2023/06/29 10:20:28;;;;;;;11.57;9.63;;;21.70;99.90;;;;;;4873762;29;20056;-75
2023/06/29 10:22:57;;;;;;;12.73;10.35;;;21.60;1.00;;;;;;4890414;29;20141;-75
2023/06/29 10:25:24;;;;;;;13.98;10.45;;;21.50;29.50;;;;;;4866754;29;20041;-75
2023/06/29 10:27:53;;;;;;;11.70;9.80;;;21.40;79.00;;;;;;4889006;29;20032;-75
2023/06/29 10:30:21;;;;;;;11.40;10.18;;;21.30;99.90;;;;;;4896158;29;20044;-75
2023/06/29 10:32:51;;;;;;;12.75;10.18;;;21.30;97.70;;;;;;4877220;29;20041;-75
2023/06/29 10:35:17;;;;;;;12.63;10.30;;;21.20;99.90;;;;;;4891474;29;20452;-74
2023/06/29 10:37:48;;;;;;;12.68;10.05;;;21.10;99.90;;;;;;4899926;29;20048;-74
2023/06/29 10:40:20;;;;;;;14.73;11.18;;;21.10;99.90;;;;;;4899597;29;20059;-74
2023/06/29 10:42:45;;;;;;;14.45;12.05;;;21.00;1.00;;;;;;4895888;29;20036;-74
2023/06/29 10:45:17;;;;;;;10.98;9.70;;;20.90;8.10;;;;;;4889154;29;20515;-74
2023/06/29 10:47:45;;;;;;;14.32;11.18;;;20.90;79.00;;;;;;4896850;29;20119;-74
2023/06/29 10:50:10;;;;;;;12.25;10.32;;;20.90;78.10;;;;;;4897298;29;20055;-74
2023/06/29 10:52:37;;;;;;;12.52;11.10;;;20.80;93.10;;;;;;4898930;29;20393;-75
2023/06/29 10:55:22;;;;;;;15.38;11.80;;;20.90;99.90;;;;;;4883860;29;20059;-74
2023/06/29 10:57:51;;;;;;;10.63;9.27;;;21.00;50.40;;;;;;4899564;29;20036;-74
2023/06/29 11:00:18;;;;;;;11.60;9.95;;;21.10;29.20;;;;;;4899511;29;20119;-74
2023/06/29 11:02:47;;;;;;;11.88;9.60;;;21.10;99.90;;;;;;4899798;29;20110;-75
2023/06/29 11:05:14;;;;;;;10.27;8.48;;;21.20;99.90;;;;;;4899664;29;20111;-75
2023/06/29 11:07:41;;;;;;;9.90;8.23;;;21.40;99.90;;;;;;4883999;29;20063;-75
2023/06/29 11:10:07;;;;;;;10.63;9.35;;;21.50;99.90;;;;;;4899655;29;20040;-75
2023/06/29 11:12:36;;;;;;;13.45;10.80;;;21.60;99.90;;;;;;4899768;29;20119;-75
2023/06/29 11:15:03;;;;;;;13.40;11.80;;;21.60;99.90;;;;;;4883898;29;20044;-74
2023/06/29 11:17:29;;;;;;;12.40;10.82;;;21.70;99.90;;;;;;4899451;29;20058;-75
2023/06/29 11:19:55;;;;;;;13.68;11.15;;;21.70;99.90;;;;;;4883707;29;20044;-75
2023/06/29 11:22:20;;;;;;;11.65;9.57;;;21.70;3.10;;;;;;4899337;29;20507;-75
2023/06/29 11:24:46;;;;;;;10.68;9.38;;;21.70;99.90;;;;;;4898991;29;20093;-75
2023/06/29 11:27:16;;;;;;;13.15;11.15;;;21.70;99.90;;;;;;4899313;29;20052;-74
2023/06/29 11:29:42;;;;;;;11.52;9.82;;;21.60;99.90;;;;;;4898990;29;20088;-75
2023/06/29 11:32:15;;;;;;;11.40;9.70;;;21.70;99.90;;;;;;4898994;29;20056;-75
2023/06/29 11:34:41;;;;;;;9.70;8.68;;;21.70;1.00;;;;;;4883368;29;20500;-75
2023/06/29 11:37:09;;;;;;;10.05;8.30;;;21.70;99.90;;;;;;4883585;29;20090;-74
2023/06/29 11:39:35;;;;;;;8.48;7.60;;;21.70;1.00;;;;;;4898977;29;20468;-75
2023/06/29 11:42:09;;;;;;;12.27;10.60;;;21.60;55.40;;;;;;4898811;29;20143;-75
2023/06/29 11:44:35;;;;;;;12.77;10.32;;;21.60;99.90;;;;;;4898914;29;20126;-75
2023/06/29 11:47:00;;;;;;;11.65;9.32;;;21.60;1.00;;;;;;4897649;29;20131;-75
2023/06/29 11:49:26;;;;;;;12.98;9.85;;;21.80;9.70;;;;;;4883256;29;20054;-75
2023/06/29 11:51:52;;;;;;;12.60;10.60;;;22.00;1.00;;;;;;4898714;29;20056;-74
2023/06/29 11:54:19;;;;;;;15.20;12.45;;;22.30;99.90;;;;;;4898902;29;20059;-75
2023/06/29 11:56:44;;;;;;;17.00;13.95;;;22.40;99.90;;;;;;4898838;29;20052;-75
2023/06/29 11:59:17;;;;;;;14.82;13.23;;;22.40;99.90;;;;;;4882988;29;20448;-75
2023/06/29 12:01:46;;;;;;;13.02;11.63;;;22.40;1.00;;;;;;4883509;29;20044;-74
2023/06/29 12:04:15;;;;;;;16.40;12.90;;;22.50;99.90;;;;;;4883196;29;20052;-74
2023/06/29 12:06:57;;;;;;;14.35;12.38;;;22.40;99.90;;;;;;4898703;29;20048;-75
2023/06/29 12:09:31;;;;;;;15.45;12.65;;;22.40;99.90;;;;;;4898595;29;20396;-76
2023/06/29 12:12:02;;;;;;;13.07;11.02;;;22.40;99.90;;;;;;4898656;29;20052;-76
2023/06/29 12:14:34;;;;;;;16.10;12.93;;;22.50;1.00;;;;;;4882964;29;20433;-76
2023/06/29 12:17:00;;;;;;;12.88;11.05;;;22.60;99.90;;;;;;4883318;29;20044;-75
2023/06/29 12:19:36;;;;;;;18.70;14.70;;;22.80;99.90;;;;;;4898125;29;20522;-76
2023/06/29 12:22:14;;;;;;;14.10;12.48;;;22.80;1.00;;;;;;4883096;29;20055;-76
2023/06/29 12:24:40;;;;;;;14.63;12.57;;;23.10;99.90;;;;;;4898446;29;20084;-76
2023/06/29 12:27:06;;;;;;;13.68;11.55;;;23.20;99.90;;;;;;4867039;29;20044;-76
2023/06/29 12:29:31;;;;;;;15.90;13.18;;;23.40;99.90;;;;;;4897926;29;20054;-76
2023/06/29 12:32:00;;;;;;;18.40;13.10;;;23.70;99.90;;;;;;4898228;29;20162;-75
2023/06/29 12:34:28;;;;;;;14.63;11.57;;;24.00;32.20;;;;;;4898021;29;20500;-75
2023/06/29 12:36:54;;;;;;;14.75;12.15;;;24.10;1.00;;;;;;4883139;29;20044;-75
2023/06/29 12:39:20;;;;;;;14.43;12.43;;;24.20;99.90;;;;;;4897854;29;20062;-76
2023/06/29 12:41:45;;;;;;;16.77;12.65;;;24.40;99.90;;;;;;4897999;29;20048;-75
2023/06/29 12:44:11;;;;;;;16.63;12.68;;;24.60;99.90;;;;;;4897752;29;20115;-76
2023/06/29 12:46:37;;;;;;;13.30;11.88;;;24.70;99.90;;;;;;4897454;29;20062;-76
2023/06/29 12:49:03;;;;;;;12.15;10.50;;;24.70;99.90;;;;;;4897780;29;20044;-76
2023/06/29 12:51:28;;;;;;;13.23;11.63;;;24.60;99.90;;;;;;4897591;29;20148;-75
2023/06/29 12:53:54;;;;;;;14.50;12.82;;;24.50;99.90;;;;;;4882492;29;20146;-76
2023/06/29 12:56:20;;;;;;;16.63;14.40;;;24.40;99.90;;;;;;4897598;29;20055;-75